sensor_id;sensor_type;location;lat;lon;timestamp;P1;durP1;ratioP1;P2;durP2;ratioP2
46593;SDS011;35342;52.378;4.648;2023-02-21T00:01:55;24.52;;;5.65;;
46593;SDS011;35342;52.378;4.648;2023-02-21T00:04:40;25.08;;;6.00;;
46593;SDS011;35342;52.378;4.648;2023-02-21T00:07:24;21.05;;;4.88;;
46593;SDS011;35342;52.378;4.648;2023-02-21T00:10:10;30.80;;;6.72;;
46593;SDS011;35342;52.378;4.648;2023-02-21T00:12:57;19.75;;;5.82;;
46593;SDS011;35342;52.378;4.648;2023-02-21T00:15:41;18.98;;;7.07;;
46593;SDS011;35342;52.378;4.648;2023-02-21T00:21:10;23.70;;;5.82;;
46593;SDS011;35342;52.378;4.648;2023-02-21T00:23:54;15.38;;;5.68;;
46593;SDS011;35342;52.378;4.648;2023-02-21T00:26:39;16.42;;;5.85;;
46593;SDS011;35342;52.378;4.648;2023-02-21T00:29:24;22.50;;;6.10;;
46593;SDS011;35342;52.378;4.648;2023-02-21T00:32:09;19.13;;;6.03;;
46593;SDS011;35342;52.378;4.648;2023-02-21T00:34:54;17.75;;;6.30;;
46593;SDS011;35342;52.378;4.648;2023-02-21T00:37:38;25.33;;;6.63;;
46593;SDS011;35342;52.378;4.648;2023-02-21T00:40:23;38.13;;;9.15;;
46593;SDS011;35342;52.378;4.648;2023-02-21T00:43:07;16.50;;;6.30;;
46593;SDS011;35342;52.378;4.648;2023-02-21T00:45:52;20.35;;;7.25;;
46593;SDS011;35342;52.378;4.648;2023-02-21T00:48:36;20.75;;;6.68;;
46593;SDS011;35342;52.378;4.648;2023-02-21T00:51:21;18.38;;;6.97;;
46593;SDS011;35342;52.378;4.648;2023-02-21T00:54:05;28.48;;;7.28;;
46593;SDS011;35342;52.378;4.648;2023-02-21T00:56:50;27.92;;;6.50;;
46593;SDS011;35342;52.378;4.648;2023-02-21T00:59:34;19.73;;;5.55;;
46593;SDS011;35342;52.378;4.648;2023-02-21T01:02:19;17.83;;;7.65;;
46593;SDS011;35342;52.378;4.648;2023-02-21T01:05:03;26.65;;;7.25;;
46593;SDS011;35342;52.378;4.648;2023-02-21T01:07:48;19.35;;;6.20;;
46593;SDS011;35342;52.378;4.648;2023-02-21T01:10:33;27.10;;;7.15;;
46593;SDS011;35342;52.378;4.648;2023-02-21T01:13:18;33.28;;;8.70;;
46593;SDS011;35342;52.378;4.648;2023-02-21T01:16:02;22.40;;;7.50;;
46593;SDS011;35342;52.378;4.648;2023-02-21T01:18:50;21.13;;;6.93;;
46593;SDS011;35342;52.378;4.648;2023-02-21T01:21:35;31.05;;;7.55;;
46593;SDS011;35342;52.378;4.648;2023-02-21T01:24:19;13.82;;;6.72;;
46593;SDS011;35342;52.378;4.648;2023-02-21T01:27:04;34.65;;;8.60;;
46593;SDS011;35342;52.378;4.648;2023-02-21T01:29:49;18.73;;;7.45;;
46593;SDS011;35342;52.378;4.648;2023-02-21T01:32:33;21.50;;;7.28;;
46593;SDS011;35342;52.378;4.648;2023-02-21T01:35:18;20.85;;;8.35;;
46593;SDS011;35342;52.378;4.648;2023-02-21T01:38:02;17.50;;;7.45;;
46593;SDS011;35342;52.378;4.648;2023-02-21T01:40:47;25.77;;;7.47;;
46593;SDS011;35342;52.378;4.648;2023-02-21T01:43:31;20.35;;;8.07;;
46593;SDS011;35342;52.378;4.648;2023-02-21T01:46:16;17.17;;;7.25;;
46593;SDS011;35342;52.378;4.648;2023-02-21T01:49:05;28.05;;;8.35;;
46593;SDS011;35342;52.378;4.648;2023-02-21T01:51:56;22.58;;;7.38;;
46593;SDS011;35342;52.378;4.648;2023-02-21T01:54:45;34.25;;;8.40;;
46593;SDS011;35342;52.378;4.648;2023-02-21T01:57:35;25.25;;;8.35;;
46593;SDS011;35342;52.378;4.648;2023-02-21T02:00:21;22.00;;;8.77;;
46593;SDS011;35342;52.378;4.648;2023-02-21T02:03:07;22.27;;;8.25;;
46593;SDS011;35342;52.378;4.648;2023-02-21T02:05:59;19.77;;;7.85;;
46593;SDS011;35342;52.378;4.648;2023-02-21T02:08:51;22.30;;;8.48;;
46593;SDS011;35342;52.378;4.648;2023-02-21T02:24:34;27.13;;;8.57;;
46593;SDS011;35342;52.378;4.648;2023-02-21T02:27:24;20.85;;;9.45;;
46593;SDS011;35342;52.378;4.648;2023-02-21T02:38:32;27.15;;;10.23;;
46593;SDS011;35342;52.378;4.648;2023-02-21T02:44:13;26.27;;;10.75;;
46593;SDS011;35342;52.378;4.648;2023-02-21T02:47:00;27.90;;;11.63;;
46593;SDS011;35342;52.378;4.648;2023-02-21T02:49:28;23.08;;;11.15;;
46593;SDS011;35342;52.378;4.648;2023-02-21T02:52:01;18.50;;;9.30;;
46593;SDS011;35342;52.378;4.648;2023-02-21T02:54:30;22.58;;;10.70;;
46593;SDS011;35342;52.378;4.648;2023-02-21T02:56:56;20.20;;;10.45;;
46593;SDS011;35342;52.378;4.648;2023-02-21T02:59:27;21.15;;;9.80;;
46593;SDS011;35342;52.378;4.648;2023-02-21T03:16:05;17.50;;;10.90;;
46593;SDS011;35342;52.378;4.648;2023-02-21T03:18:46;23.17;;;11.15;;
46593;SDS011;35342;52.378;4.648;2023-02-21T03:21:44;29.52;;;12.25;;
46593;SDS011;35342;52.378;4.648;2023-02-21T03:24:18;29.05;;;11.15;;
46593;SDS011;35342;52.378;4.648;2023-02-21T03:26:47;26.25;;;12.60;;
46593;SDS011;35342;52.378;4.648;2023-02-21T03:29:19;25.20;;;10.13;;
46593;SDS011;35342;52.378;4.648;2023-02-21T03:31:51;21.75;;;11.52;;
46593;SDS011;35342;52.378;4.648;2023-02-21T03:34:24;27.25;;;12.55;;
46593;SDS011;35342;52.378;4.648;2023-02-21T03:36:50;21.55;;;11.00;;
46593;SDS011;35342;52.378;4.648;2023-02-21T03:39:16;24.83;;;10.48;;
46593;SDS011;35342;52.378;4.648;2023-02-21T03:41:41;27.48;;;13.15;;
46593;SDS011;35342;52.378;4.648;2023-02-21T03:44:07;24.77;;;11.60;;
46593;SDS011;35342;52.378;4.648;2023-02-21T03:46:33;24.08;;;12.27;;
46593;SDS011;35342;52.378;4.648;2023-02-21T03:48:59;25.88;;;11.50;;
46593;SDS011;35342;52.378;4.648;2023-02-21T03:51:25;32.28;;;12.52;;
46593;SDS011;35342;52.378;4.648;2023-02-21T03:53:51;26.40;;;11.07;;
46593;SDS011;35342;52.378;4.648;2023-02-21T03:56:17;27.75;;;11.27;;
46593;SDS011;35342;52.378;4.648;2023-02-21T03:58:42;29.17;;;13.63;;
46593;SDS011;35342;52.378;4.648;2023-02-21T04:01:08;24.83;;;13.63;;
46593;SDS011;35342;52.378;4.648;2023-02-21T04:03:34;26.67;;;11.13;;
46593;SDS011;35342;52.378;4.648;2023-02-21T04:06:00;21.60;;;11.95;;
46593;SDS011;35342;52.378;4.648;2023-02-21T04:08:27;31.75;;;12.63;;
46593;SDS011;35342;52.378;4.648;2023-02-21T04:10:53;33.70;;;14.88;;
46593;SDS011;35342;52.378;4.648;2023-02-21T04:13:19;24.38;;;13.30;;
46593;SDS011;35342;52.378;4.648;2023-02-21T04:15:47;23.13;;;12.77;;
46593;SDS011;35342;52.378;4.648;2023-02-21T04:18:13;30.98;;;12.00;;
46593;SDS011;35342;52.378;4.648;2023-02-21T04:20:39;25.88;;;11.00;;
46593;SDS011;35342;52.378;4.648;2023-02-21T04:23:04;25.35;;;10.93;;
46593;SDS011;35342;52.378;4.648;2023-02-21T04:25:30;23.65;;;12.65;;
46593;SDS011;35342;52.378;4.648;2023-02-21T04:27:56;32.42;;;12.88;;
46593;SDS011;35342;52.378;4.648;2023-02-21T04:30:22;24.98;;;12.40;;
46593;SDS011;35342;52.378;4.648;2023-02-21T04:32:48;25.25;;;11.88;;
46593;SDS011;35342;52.378;4.648;2023-02-21T04:35:14;26.52;;;12.80;;
46593;SDS011;35342;52.378;4.648;2023-02-21T04:37:40;22.83;;;11.75;;
46593;SDS011;35342;52.378;4.648;2023-02-21T04:40:09;29.63;;;12.60;;
46593;SDS011;35342;52.378;4.648;2023-02-21T04:42:35;23.38;;;12.23;;
46593;SDS011;35342;52.378;4.648;2023-02-21T04:45:00;27.60;;;13.13;;
46593;SDS011;35342;52.378;4.648;2023-02-21T04:47:27;26.05;;;13.57;;
46593;SDS011;35342;52.378;4.648;2023-02-21T04:49:53;29.13;;;13.82;;
46593;SDS011;35342;52.378;4.648;2023-02-21T04:52:18;22.23;;;13.10;;
46593;SDS011;35342;52.378;4.648;2023-02-21T04:54:45;29.13;;;14.02;;
46593;SDS011;35342;52.378;4.648;2023-02-21T04:57:12;24.42;;;12.98;;
46593;SDS011;35342;52.378;4.648;2023-02-21T04:59:39;26.77;;;13.60;;
46593;SDS011;35342;52.378;4.648;2023-02-21T05:02:05;27.33;;;13.52;;
46593;SDS011;35342;52.378;4.648;2023-02-21T05:04:32;33.85;;;15.38;;
46593;SDS011;35342;52.378;4.648;2023-02-21T05:06:59;20.45;;;13.13;;
46593;SDS011;35342;52.378;4.648;2023-02-21T05:09:25;26.40;;;14.63;;
46593;SDS011;35342;52.378;4.648;2023-02-21T05:11:51;23.45;;;13.82;;
46593;SDS011;35342;52.378;4.648;2023-02-21T05:14:17;22.67;;;13.70;;
46593;SDS011;35342;52.378;4.648;2023-02-21T05:16:43;26.17;;;13.68;;
46593;SDS011;35342;52.378;4.648;2023-02-21T05:19:09;33.38;;;14.13;;
46593;SDS011;35342;52.378;4.648;2023-02-21T05:21:35;33.60;;;15.63;;
46593;SDS011;35342;52.378;4.648;2023-02-21T05:24:02;32.08;;;15.07;;
46593;SDS011;35342;52.378;4.648;2023-02-21T05:26:33;24.85;;;14.50;;
46593;SDS011;35342;52.378;4.648;2023-02-21T05:29:01;26.13;;;14.15;;
46593;SDS011;35342;52.378;4.648;2023-02-21T05:31:29;35.05;;;15.48;;
46593;SDS011;35342;52.378;4.648;2023-02-21T05:33:55;27.92;;;15.75;;
46593;SDS011;35342;52.378;4.648;2023-02-21T05:36:21;29.38;;;14.13;;
46593;SDS011;35342;52.378;4.648;2023-02-21T05:38:51;29.58;;;16.00;;
46593;SDS011;35342;52.378;4.648;2023-02-21T05:41:19;39.03;;;16.73;;
46593;SDS011;35342;52.378;4.648;2023-02-21T05:43:46;28.58;;;15.43;;
46593;SDS011;35342;52.378;4.648;2023-02-21T05:46:32;31.60;;;15.88;;
46593;SDS011;35342;52.378;4.648;2023-02-21T05:48:59;29.40;;;14.60;;
46593;SDS011;35342;52.378;4.648;2023-02-21T05:51:32;28.90;;;15.75;;
46593;SDS011;35342;52.378;4.648;2023-02-21T05:54:00;26.48;;;14.25;;
46593;SDS011;35342;52.378;4.648;2023-02-21T05:56:26;29.05;;;14.88;;
46593;SDS011;35342;52.378;4.648;2023-02-21T05:58:52;31.55;;;15.48;;
46593;SDS011;35342;52.378;4.648;2023-02-21T06:01:18;23.45;;;13.57;;
46593;SDS011;35342;52.378;4.648;2023-02-21T06:03:44;26.45;;;15.57;;
46593;SDS011;35342;52.378;4.648;2023-02-21T06:06:10;28.70;;;15.23;;
46593;SDS011;35342;52.378;4.648;2023-02-21T06:08:42;28.65;;;15.73;;
46593;SDS011;35342;52.378;4.648;2023-02-21T06:11:11;28.08;;;14.02;;
46593;SDS011;35342;52.378;4.648;2023-02-21T06:13:37;29.38;;;14.88;;
46593;SDS011;35342;52.378;4.648;2023-02-21T06:16:03;31.35;;;14.98;;
46593;SDS011;35342;52.378;4.648;2023-02-21T06:18:30;32.15;;;15.13;;
46593;SDS011;35342;52.378;4.648;2023-02-21T06:20:57;27.05;;;15.13;;
46593;SDS011;35342;52.378;4.648;2023-02-21T06:23:23;28.50;;;15.98;;
46593;SDS011;35342;52.378;4.648;2023-02-21T06:25:49;32.00;;;14.75;;
46593;SDS011;35342;52.378;4.648;2023-02-21T06:28:15;30.40;;;15.98;;
46593;SDS011;35342;52.378;4.648;2023-02-21T06:30:41;25.98;;;14.57;;
46593;SDS011;35342;52.378;4.648;2023-02-21T06:33:07;25.13;;;15.05;;
46593;SDS011;35342;52.378;4.648;2023-02-21T06:35:33;27.08;;;14.73;;
46593;SDS011;35342;52.378;4.648;2023-02-21T06:37:59;28.63;;;15.27;;
46593;SDS011;35342;52.378;4.648;2023-02-21T06:40:24;28.58;;;17.20;;
46593;SDS011;35342;52.378;4.648;2023-02-21T06:42:50;22.63;;;15.18;;
46593;SDS011;35342;52.378;4.648;2023-02-21T06:45:16;30.10;;;15.15;;
46593;SDS011;35342;52.378;4.648;2023-02-21T06:47:42;27.40;;;16.35;;
46593;SDS011;35342;52.378;4.648;2023-02-21T06:50:08;31.00;;;16.48;;
46593;SDS011;35342;52.378;4.648;2023-02-21T06:52:33;29.45;;;17.23;;
46593;SDS011;35342;52.378;4.648;2023-02-21T06:54:59;38.08;;;16.63;;
46593;SDS011;35342;52.378;4.648;2023-02-21T06:57:25;30.95;;;16.90;;
46593;SDS011;35342;52.378;4.648;2023-02-21T06:59:51;31.73;;;16.52;;
46593;SDS011;35342;52.378;4.648;2023-02-21T07:02:18;39.13;;;17.75;;
46593;SDS011;35342;52.378;4.648;2023-02-21T07:04:45;29.15;;;17.00;;
46593;SDS011;35342;52.378;4.648;2023-02-21T07:07:12;28.33;;;15.95;;
46593;SDS011;35342;52.378;4.648;2023-02-21T07:09:38;27.75;;;16.83;;
46593;SDS011;35342;52.378;4.648;2023-02-21T07:12:04;30.10;;;16.73;;
46593;SDS011;35342;52.378;4.648;2023-02-21T07:14:30;28.58;;;16.08;;
46593;SDS011;35342;52.378;4.648;2023-02-21T07:16:56;32.38;;;16.50;;
46593;SDS011;35342;52.378;4.648;2023-02-21T07:19:21;25.42;;;15.93;;
46593;SDS011;35342;52.378;4.648;2023-02-21T07:21:47;33.72;;;17.35;;
46593;SDS011;35342;52.378;4.648;2023-02-21T07:24:13;24.63;;;14.85;;
46593;SDS011;35342;52.378;4.648;2023-02-21T07:26:39;29.13;;;15.45;;
46593;SDS011;35342;52.378;4.648;2023-02-21T07:29:05;26.88;;;16.92;;
46593;SDS011;35342;52.378;4.648;2023-02-21T07:31:31;30.55;;;17.10;;
46593;SDS011;35342;52.378;4.648;2023-02-21T07:33:57;28.10;;;16.17;;
46593;SDS011;35342;52.378;4.648;2023-02-21T07:36:24;25.65;;;14.05;;
46593;SDS011;35342;52.378;4.648;2023-02-21T07:38:50;27.60;;;15.45;;
46593;SDS011;35342;52.378;4.648;2023-02-21T07:41:16;26.20;;;15.07;;
46593;SDS011;35342;52.378;4.648;2023-02-21T07:43:42;24.60;;;15.90;;
46593;SDS011;35342;52.378;4.648;2023-02-21T07:46:08;24.73;;;15.48;;
46593;SDS011;35342;52.378;4.648;2023-02-21T07:48:36;29.08;;;15.05;;
46593;SDS011;35342;52.378;4.648;2023-02-21T07:51:02;25.25;;;13.38;;
46593;SDS011;35342;52.378;4.648;2023-02-21T07:53:28;32.42;;;15.55;;
46593;SDS011;35342;52.378;4.648;2023-02-21T07:55:54;30.45;;;15.43;;
46593;SDS011;35342;52.378;4.648;2023-02-21T07:58:20;24.40;;;14.45;;
46593;SDS011;35342;52.378;4.648;2023-02-21T08:00:45;28.63;;;14.65;;
46593;SDS011;35342;52.378;4.648;2023-02-21T08:03:12;26.55;;;14.77;;
46593;SDS011;35342;52.378;4.648;2023-02-21T08:05:38;25.52;;;13.15;;
46593;SDS011;35342;52.378;4.648;2023-02-21T08:08:08;24.80;;;15.00;;
46593;SDS011;35342;52.378;4.648;2023-02-21T08:10:34;22.10;;;13.23;;
46593;SDS011;35342;52.378;4.648;2023-02-21T08:13:01;26.40;;;14.95;;
46593;SDS011;35342;52.378;4.648;2023-02-21T08:15:26;28.35;;;15.45;;
46593;SDS011;35342;52.378;4.648;2023-02-21T08:17:53;26.92;;;14.27;;
46593;SDS011;35342;52.378;4.648;2023-02-21T08:20:19;24.05;;;13.63;;
46593;SDS011;35342;52.378;4.648;2023-02-21T08:22:44;33.88;;;14.80;;
46593;SDS011;35342;52.378;4.648;2023-02-21T08:25:11;27.30;;;13.10;;
46593;SDS011;35342;52.378;4.648;2023-02-21T08:27:43;21.95;;;12.60;;
46593;SDS011;35342;52.378;4.648;2023-02-21T08:30:10;21.55;;;13.00;;
46593;SDS011;35342;52.378;4.648;2023-02-21T08:32:38;30.05;;;12.65;;
46593;SDS011;35342;52.378;4.648;2023-02-21T08:35:04;24.08;;;14.05;;
46593;SDS011;35342;52.378;4.648;2023-02-21T08:37:31;22.25;;;13.75;;
46593;SDS011;35342;52.378;4.648;2023-02-21T08:40:00;25.83;;;13.95;;
46593;SDS011;35342;52.378;4.648;2023-02-21T08:42:28;23.85;;;13.00;;
46593;SDS011;35342;52.378;4.648;2023-02-21T08:44:53;22.25;;;13.27;;
46593;SDS011;35342;52.378;4.648;2023-02-21T08:47:20;24.90;;;14.02;;
46593;SDS011;35342;52.378;4.648;2023-02-21T08:49:46;23.35;;;13.05;;
46593;SDS011;35342;52.378;4.648;2023-02-21T08:52:13;25.77;;;13.30;;
46593;SDS011;35342;52.378;4.648;2023-02-21T08:54:41;18.27;;;12.57;;
46593;SDS011;35342;52.378;4.648;2023-02-21T08:57:08;22.10;;;12.38;;
46593;SDS011;35342;52.378;4.648;2023-02-21T08:59:34;18.52;;;13.07;;
46593;SDS011;35342;52.378;4.648;2023-02-21T09:02:08;21.42;;;12.05;;
46593;SDS011;35342;52.378;4.648;2023-02-21T09:04:44;18.25;;;12.13;;
46593;SDS011;35342;52.378;4.648;2023-02-21T09:07:11;17.15;;;12.20;;
46593;SDS011;35342;52.378;4.648;2023-02-21T09:09:38;17.58;;;11.32;;
46593;SDS011;35342;52.378;4.648;2023-02-21T09:12:04;18.35;;;12.77;;
46593;SDS011;35342;52.378;4.648;2023-02-21T09:14:37;23.10;;;14.65;;
46593;SDS011;35342;52.378;4.648;2023-02-21T09:17:06;17.60;;;12.00;;
46593;SDS011;35342;52.378;4.648;2023-02-21T09:19:35;18.30;;;12.90;;
46593;SDS011;35342;52.378;4.648;2023-02-21T09:22:01;17.85;;;13.50;;
46593;SDS011;35342;52.378;4.648;2023-02-21T09:24:28;21.58;;;13.25;;
46593;SDS011;35342;52.378;4.648;2023-02-21T09:26:55;17.58;;;11.35;;
46593;SDS011;35342;52.378;4.648;2023-02-21T09:29:26;20.88;;;11.70;;
46593;SDS011;35342;52.378;4.648;2023-02-21T09:31:53;18.73;;;12.07;;
46593;SDS011;35342;52.378;4.648;2023-02-21T09:34:19;17.40;;;12.20;;
46593;SDS011;35342;52.378;4.648;2023-02-21T09:36:46;16.13;;;11.00;;
46593;SDS011;35342;52.378;4.648;2023-02-21T09:39:14;16.48;;;10.88;;
46593;SDS011;35342;52.378;4.648;2023-02-21T09:41:43;12.95;;;9.65;;
46593;SDS011;35342;52.378;4.648;2023-02-21T09:44:20;17.85;;;10.43;;
46593;SDS011;35342;52.378;4.648;2023-02-21T09:47:01;18.35;;;11.40;;
46593;SDS011;35342;52.378;4.648;2023-02-21T09:49:40;16.23;;;10.45;;
46593;SDS011;35342;52.378;4.648;2023-02-21T09:52:17;12.75;;;8.77;;
46593;SDS011;35342;52.378;4.648;2023-02-21T09:54:53;14.15;;;10.30;;
46593;SDS011;35342;52.378;4.648;2023-02-21T09:57:24;26.52;;;11.38;;
46593;SDS011;35342;52.378;4.648;2023-02-21T09:59:50;14.88;;;10.77;;
46593;SDS011;35342;52.378;4.648;2023-02-21T10:02:35;13.43;;;10.38;;
46593;SDS011;35342;52.378;4.648;2023-02-21T10:11:23;19.42;;;9.90;;
46593;SDS011;35342;52.378;4.648;2023-02-21T10:14:44;15.73;;;10.70;;
46593;SDS011;35342;52.378;4.648;2023-02-21T10:18:04;13.02;;;8.93;;
46593;SDS011;35342;52.378;4.648;2023-02-21T10:21:20;18.73;;;11.02;;
46593;SDS011;35342;52.378;4.648;2023-02-21T10:23:55;11.70;;;9.20;;
46593;SDS011;35342;52.378;4.648;2023-02-21T10:26:29;12.07;;;10.20;;
46593;SDS011;35342;52.378;4.648;2023-02-21T10:29:01;12.13;;;8.73;;
46593;SDS011;35342;52.378;4.648;2023-02-21T10:31:31;11.25;;;8.88;;
46593;SDS011;35342;52.378;4.648;2023-02-21T10:34:03;12.52;;;8.73;;
46593;SDS011;35342;52.378;4.648;2023-02-21T10:36:31;12.68;;;8.02;;
46593;SDS011;35342;52.378;4.648;2023-02-21T10:41:38;10.32;;;8.57;;
46593;SDS011;35342;52.378;4.648;2023-02-21T10:44:13;11.95;;;8.85;;
46593;SDS011;35342;52.378;4.648;2023-02-21T10:49:37;10.63;;;9.10;;
46593;SDS011;35342;52.378;4.648;2023-02-21T10:52:36;15.10;;;9.15;;
46593;SDS011;35342;52.378;4.648;2023-02-21T10:55:20;12.45;;;9.38;;
46593;SDS011;35342;52.378;4.648;2023-02-21T10:57:52;11.32;;;8.90;;
46593;SDS011;35342;52.378;4.648;2023-02-21T11:00:42;14.82;;;11.05;;
46593;SDS011;35342;52.378;4.648;2023-02-21T11:03:14;11.93;;;8.52;;
46593;SDS011;35342;52.378;4.648;2023-02-21T11:05:52;17.13;;;9.00;;
46593;SDS011;35342;52.378;4.648;2023-02-21T11:11:32;12.38;;;8.32;;
46593;SDS011;35342;52.378;4.648;2023-02-21T11:14:23;16.92;;;9.55;;
46593;SDS011;35342;52.378;4.648;2023-02-21T11:22:40;13.88;;;9.38;;
46593;SDS011;35342;52.378;4.648;2023-02-21T11:25:14;12.50;;;9.32;;
46593;SDS011;35342;52.378;4.648;2023-02-21T11:27:58;11.35;;;9.00;;
46593;SDS011;35342;52.378;4.648;2023-02-21T11:33:38;14.98;;;9.65;;
46593;SDS011;35342;52.378;4.648;2023-02-21T11:36:37;14.23;;;9.63;;
46593;SDS011;35342;52.378;4.648;2023-02-21T11:39:18;15.73;;;11.15;;
46593;SDS011;35342;52.378;4.648;2023-02-21T11:44:32;15.00;;;11.32;;
46593;SDS011;35342;52.378;4.648;2023-02-21T11:52:48;24.92;;;14.20;;
46593;SDS011;35342;52.378;4.648;2023-02-21T11:55:28;20.88;;;12.98;;
46593;SDS011;35342;52.378;4.648;2023-02-21T12:06:34;24.30;;;14.18;;
46593;SDS011;35342;52.378;4.648;2023-02-21T12:12:37;25.67;;;15.90;;
46593;SDS011;35342;52.378;4.648;2023-02-21T12:15:30;23.40;;;14.88;;
46593;SDS011;35342;52.378;4.648;2023-02-21T12:25:10;27.00;;;16.00;;
46593;SDS011;35342;52.378;4.648;2023-02-21T12:28:02;27.13;;;17.15;;
46593;SDS011;35342;52.378;4.648;2023-02-21T12:31:02;25.58;;;13.85;;
46593;SDS011;35342;52.378;4.648;2023-02-21T12:37:02;23.35;;;14.95;;
46593;SDS011;35342;52.378;4.648;2023-02-21T12:40:14;18.70;;;13.38;;
46593;SDS011;35342;52.378;4.648;2023-02-21T12:45:38;24.55;;;14.20;;
46593;SDS011;35342;52.378;4.648;2023-02-21T12:51:17;25.83;;;15.32;;
46593;SDS011;35342;52.378;4.648;2023-02-21T12:53:53;23.50;;;15.25;;
46593;SDS011;35342;52.378;4.648;2023-02-21T12:59:23;22.33;;;13.27;;
46593;SDS011;35342;52.378;4.648;2023-02-21T13:02:37;16.70;;;11.57;;
46593;SDS011;35342;52.378;4.648;2023-02-21T13:05:18;16.10;;;10.88;;
46593;SDS011;35342;52.378;4.648;2023-02-21T13:08:15;17.25;;;12.45;;
46593;SDS011;35342;52.378;4.648;2023-02-21T13:11:11;16.63;;;10.75;;
46593;SDS011;35342;52.378;4.648;2023-02-21T13:13:45;21.50;;;13.15;;
46593;SDS011;35342;52.378;4.648;2023-02-21T13:16:11;18.52;;;11.85;;
46593;SDS011;35342;52.378;4.648;2023-02-21T13:18:43;18.65;;;12.32;;
46593;SDS011;35342;52.378;4.648;2023-02-21T13:21:27;18.55;;;12.25;;
46593;SDS011;35342;52.378;4.648;2023-02-21T13:25:24;16.98;;;10.77;;
46593;SDS011;35342;52.378;4.648;2023-02-21T13:27:55;17.15;;;11.25;;
46593;SDS011;35342;52.378;4.648;2023-02-21T13:30:45;17.67;;;12.13;;
46593;SDS011;35342;52.378;4.648;2023-02-21T13:33:25;16.88;;;11.10;;
46593;SDS011;35342;52.378;4.648;2023-02-21T13:36:04;17.30;;;10.65;;
46593;SDS011;35342;52.378;4.648;2023-02-21T13:39:12;18.17;;;10.82;;
46593;SDS011;35342;52.378;4.648;2023-02-21T13:41:46;17.77;;;10.75;;
46593;SDS011;35342;52.378;4.648;2023-02-21T13:44:23;18.25;;;11.73;;
46593;SDS011;35342;52.378;4.648;2023-02-21T13:47:04;16.50;;;9.98;;
46593;SDS011;35342;52.378;4.648;2023-02-21T13:57:44;17.50;;;10.95;;
46593;SDS011;35342;52.378;4.648;2023-02-21T14:11:00;19.75;;;11.07;;
46593;SDS011;35342;52.378;4.648;2023-02-21T14:13:47;19.63;;;12.40;;
46593;SDS011;35342;52.378;4.648;2023-02-21T14:18:53;17.98;;;10.85;;
46593;SDS011;35342;52.378;4.648;2023-02-21T14:21:48;19.13;;;12.00;;
46593;SDS011;35342;52.378;4.648;2023-02-21T14:24:31;18.67;;;11.75;;
46593;SDS011;35342;52.378;4.648;2023-02-21T14:27:03;16.85;;;10.60;;
46593;SDS011;35342;52.378;4.648;2023-02-21T14:37:52;18.77;;;11.40;;
46593;SDS011;35342;52.378;4.648;2023-02-21T14:55:10;17.80;;;10.70;;
46593;SDS011;35342;52.378;4.648;2023-02-21T14:57:57;17.50;;;10.00;;
46593;SDS011;35342;52.378;4.648;2023-02-21T15:03:29;13.98;;;8.40;;
46593;SDS011;35342;52.378;4.648;2023-02-21T15:06:07;15.88;;;8.30;;
46593;SDS011;35342;52.378;4.648;2023-02-21T15:08:39;18.30;;;9.23;;
46593;SDS011;35342;52.378;4.648;2023-02-21T15:16:47;13.85;;;7.38;;
46593;SDS011;35342;52.378;4.648;2023-02-21T15:19:29;11.20;;;5.55;;
46593;SDS011;35342;52.378;4.648;2023-02-21T15:22:19;12.05;;;5.45;;
46593;SDS011;35342;52.378;4.648;2023-02-21T15:30:14;8.10;;;5.35;;
46593;SDS011;35342;52.378;4.648;2023-02-21T15:32:41;6.28;;;4.75;;
46593;SDS011;35342;52.378;4.648;2023-02-21T15:35:17;11.90;;;5.57;;
46593;SDS011;35342;52.378;4.648;2023-02-21T15:37:49;5.47;;;4.15;;
46593;SDS011;35342;52.378;4.648;2023-02-21T15:40:20;7.88;;;5.22;;
46593;SDS011;35342;52.378;4.648;2023-02-21T15:42:49;11.07;;;5.27;;
46593;SDS011;35342;52.378;4.648;2023-02-21T15:45:21;10.90;;;6.00;;
46593;SDS011;35342;52.378;4.648;2023-02-21T15:47:55;5.68;;;4.72;;
46593;SDS011;35342;52.378;4.648;2023-02-21T15:50:35;9.55;;;5.32;;
46593;SDS011;35342;52.378;4.648;2023-02-21T15:53:23;8.90;;;5.80;;
46593;SDS011;35342;52.378;4.648;2023-02-21T15:55:50;7.78;;;5.55;;
46593;SDS011;35342;52.378;4.648;2023-02-21T15:58:19;10.63;;;7.35;;
46593;SDS011;35342;52.378;4.648;2023-02-21T16:01:04;9.67;;;5.93;;
46593;SDS011;35342;52.378;4.648;2023-02-21T16:03:40;9.27;;;6.47;;
46593;SDS011;35342;52.378;4.648;2023-02-21T16:11:59;9.30;;;5.00;;
46593;SDS011;35342;52.378;4.648;2023-02-21T16:14:45;6.63;;;5.13;;
46593;SDS011;35342;52.378;4.648;2023-02-21T16:17:26;7.43;;;5.20;;
46593;SDS011;35342;52.378;4.648;2023-02-21T16:20:14;7.00;;;5.47;;
46593;SDS011;35342;52.378;4.648;2023-02-21T16:23:03;7.13;;;5.55;;
46593;SDS011;35342;52.378;4.648;2023-02-21T16:26:01;7.95;;;5.30;;
46593;SDS011;35342;52.378;4.648;2023-02-21T16:28:49;7.95;;;5.88;;
46593;SDS011;35342;52.378;4.648;2023-02-21T16:31:15;8.70;;;4.95;;
46593;SDS011;35342;52.378;4.648;2023-02-21T16:33:50;9.80;;;6.28;;
46593;SDS011;35342;52.378;4.648;2023-02-21T16:36:21;10.23;;;5.43;;
46593;SDS011;35342;52.378;4.648;2023-02-21T16:38:53;10.10;;;5.63;;
46593;SDS011;35342;52.378;4.648;2023-02-21T16:41:23;8.85;;;5.30;;
46593;SDS011;35342;52.378;4.648;2023-02-21T16:43:49;10.10;;;6.57;;
46593;SDS011;35342;52.378;4.648;2023-02-21T16:46:25;8.73;;;5.93;;
46593;SDS011;35342;52.378;4.648;2023-02-21T16:48:55;9.23;;;5.95;;
46593;SDS011;35342;52.378;4.648;2023-02-21T16:51:22;10.00;;;6.32;;
46593;SDS011;35342;52.378;4.648;2023-02-21T16:53:48;9.32;;;5.25;;
46593;SDS011;35342;52.378;4.648;2023-02-21T16:56:14;7.15;;;5.20;;
46593;SDS011;35342;52.378;4.648;2023-02-21T16:58:41;8.23;;;5.40;;
46593;SDS011;35342;52.378;4.648;2023-02-21T17:01:17;9.23;;;6.78;;
46593;SDS011;35342;52.378;4.648;2023-02-21T17:03:51;8.90;;;6.05;;
46593;SDS011;35342;52.378;4.648;2023-02-21T17:06:19;7.63;;;5.82;;
46593;SDS011;35342;52.378;4.648;2023-02-21T17:08:50;9.15;;;6.15;;
46593;SDS011;35342;52.378;4.648;2023-02-21T17:11:16;10.05;;;6.30;;
46593;SDS011;35342;52.378;4.648;2023-02-21T17:13:42;9.55;;;6.22;;
46593;SDS011;35342;52.378;4.648;2023-02-21T17:16:08;9.35;;;6.43;;
46593;SDS011;35342;52.378;4.648;2023-02-21T17:18:34;8.80;;;6.28;;
46593;SDS011;35342;52.378;4.648;2023-02-21T17:21:00;9.10;;;6.03;;
46593;SDS011;35342;52.378;4.648;2023-02-21T17:23:26;8.48;;;6.18;;
46593;SDS011;35342;52.378;4.648;2023-02-21T17:25:52;11.88;;;6.57;;
46593;SDS011;35342;52.378;4.648;2023-02-21T17:28:18;8.13;;;6.03;;
46593;SDS011;35342;52.378;4.648;2023-02-21T17:30:44;10.68;;;6.82;;
46593;SDS011;35342;52.378;4.648;2023-02-21T17:33:11;10.77;;;6.97;;
46593;SDS011;35342;52.378;4.648;2023-02-21T17:35:39;9.40;;;6.95;;
46593;SDS011;35342;52.378;4.648;2023-02-21T17:38:05;10.77;;;7.38;;
46593;SDS011;35342;52.378;4.648;2023-02-21T17:40:31;10.57;;;7.63;;
46593;SDS011;35342;52.378;4.648;2023-02-21T17:42:57;12.95;;;8.32;;
46593;SDS011;35342;52.378;4.648;2023-02-21T17:45:23;11.95;;;8.35;;
46593;SDS011;35342;52.378;4.648;2023-02-21T17:47:50;13.70;;;8.27;;
46593;SDS011;35342;52.378;4.648;2023-02-21T17:50:19;9.60;;;7.03;;
46593;SDS011;35342;52.378;4.648;2023-02-21T17:52:45;10.65;;;7.78;;
46593;SDS011;35342;52.378;4.648;2023-02-21T17:55:15;10.70;;;7.30;;
46593;SDS011;35342;52.378;4.648;2023-02-21T17:57:45;11.55;;;6.97;;